sensor_id;sensor_type;location;lat;lon;timestamp;P1;durP1;ratioP1;P2;durP2;ratioP2
17369;SDS011;8802;52.402;4.920;2023-04-06T00:00:26;12.75;;;11.40;;
17369;SDS011;8802;52.402;4.920;2023-04-06T00:02:52;13.52;;;11.38;;
17369;SDS011;8802;52.402;4.920;2023-04-06T00:05:19;13.82;;;10.48;;
17369;SDS011;8802;52.402;4.920;2023-04-06T00:07:48;13.35;;;10.60;;
17369;SDS011;8802;52.402;4.920;2023-04-06T00:10:15;12.43;;;9.98;;
17369;SDS011;8802;52.402;4.920;2023-04-06T00:12:44;10.57;;;9.48;;
17369;SDS011;8802;52.402;4.920;2023-04-06T00:15:11;14.80;;;10.43;;
17369;SDS011;8802;52.402;4.920;2023-04-06T00:17:37;11.95;;;10.68;;
17369;SDS011;8802;52.402;4.920;2023-04-06T00:20:05;11.50;;;10.35;;
17369;SDS011;8802;52.402;4.920;2023-04-06T00:22:33;11.55;;;10.25;;
17369;SDS011;8802;52.402;4.920;2023-04-06T00:25:00;12.57;;;11.27;;
17369;SDS011;8802;52.402;4.920;2023-04-06T00:27:27;12.30;;;11.10;;
17369;SDS011;8802;52.402;4.920;2023-04-06T00:29:56;11.10;;;9.85;;
17369;SDS011;8802;52.402;4.920;2023-04-06T00:32:23;12.63;;;10.35;;
17369;SDS011;8802;52.402;4.920;2023-04-06T00:34:50;11.48;;;10.00;;
17369;SDS011;8802;52.402;4.920;2023-04-06T00:37:16;13.52;;;9.90;;
17369;SDS011;8802;52.402;4.920;2023-04-06T00:39:44;11.68;;;9.75;;
17369;SDS011;8802;52.402;4.920;2023-04-06T00:42:11;11.45;;;10.25;;
17369;SDS011;8802;52.402;4.920;2023-04-06T00:44:39;12.40;;;10.70;;
17369;SDS011;8802;52.402;4.920;2023-04-06T00:47:08;14.05;;;10.43;;
17369;SDS011;8802;52.402;4.920;2023-04-06T00:49:35;12.50;;;10.65;;
17369;SDS011;8802;52.402;4.920;2023-04-06T00:52:02;13.10;;;9.95;;
17369;SDS011;8802;52.402;4.920;2023-04-06T00:54:29;12.20;;;10.35;;
17369;SDS011;8802;52.402;4.920;2023-04-06T00:56:56;12.88;;;10.48;;
17369;SDS011;8802;52.402;4.920;2023-04-06T00:59:23;12.73;;;11.25;;
17369;SDS011;8802;52.402;4.920;2023-04-06T01:01:50;14.30;;;11.35;;
17369;SDS011;8802;52.402;4.920;2023-04-06T01:04:19;12.35;;;9.75;;
17369;SDS011;8802;52.402;4.920;2023-04-06T01:06:47;11.65;;;9.85;;
17369;SDS011;8802;52.402;4.920;2023-04-06T01:09:14;12.23;;;10.80;;
17369;SDS011;8802;52.402;4.920;2023-04-06T01:11:41;13.93;;;10.73;;
17369;SDS011;8802;52.402;4.920;2023-04-06T01:14:08;12.25;;;10.38;;
17369;SDS011;8802;52.402;4.920;2023-04-06T01:16:36;12.27;;;10.32;;
17369;SDS011;8802;52.402;4.920;2023-04-06T01:19:06;13.60;;;10.50;;
17369;SDS011;8802;52.402;4.920;2023-04-06T01:21:36;10.70;;;9.50;;
17369;SDS011;8802;52.402;4.920;2023-04-06T01:24:05;11.82;;;9.65;;
17369;SDS011;8802;52.402;4.920;2023-04-06T01:26:33;13.07;;;11.10;;
17369;SDS011;8802;52.402;4.920;2023-04-06T01:29:01;11.40;;;9.77;;
17369;SDS011;8802;52.402;4.920;2023-04-06T01:31:29;13.18;;;10.35;;
17369;SDS011;8802;52.402;4.920;2023-04-06T01:33:56;13.13;;;10.10;;
17369;SDS011;8802;52.402;4.920;2023-04-06T01:36:23;12.95;;;11.10;;
17369;SDS011;8802;52.402;4.920;2023-04-06T01:38:50;10.95;;;9.27;;
17369;SDS011;8802;52.402;4.920;2023-04-06T01:41:18;11.15;;;10.02;;
17369;SDS011;8802;52.402;4.920;2023-04-06T01:43:46;11.63;;;9.88;;
17369;SDS011;8802;52.402;4.920;2023-04-06T01:46:13;12.65;;;10.98;;
17369;SDS011;8802;52.402;4.920;2023-04-06T01:48:40;11.25;;;9.57;;
17369;SDS011;8802;52.402;4.920;2023-04-06T01:51:07;11.88;;;9.52;;
17369;SDS011;8802;52.402;4.920;2023-04-06T01:53:34;9.65;;;8.65;;
17369;SDS011;8802;52.402;4.920;2023-04-06T01:56:01;11.20;;;9.43;;
17369;SDS011;8802;52.402;4.920;2023-04-06T01:58:29;10.13;;;9.07;;
17369;SDS011;8802;52.402;4.920;2023-04-06T02:00:56;11.50;;;8.70;;
17369;SDS011;8802;52.402;4.920;2023-04-06T02:03:23;11.30;;;9.63;;
17369;SDS011;8802;52.402;4.920;2023-04-06T02:05:50;10.57;;;8.80;;
17369;SDS011;8802;52.402;4.920;2023-04-06T02:08:17;11.00;;;9.30;;
17369;SDS011;8802;52.402;4.920;2023-04-06T02:10:44;10.50;;;9.50;;
17369;SDS011;8802;52.402;4.920;2023-04-06T02:13:11;10.13;;;9.13;;
17369;SDS011;8802;52.402;4.920;2023-04-06T02:15:39;9.85;;;8.85;;
17369;SDS011;8802;52.402;4.920;2023-04-06T02:18:06;9.18;;;8.18;;
17369;SDS011;8802;52.402;4.920;2023-04-06T02:20:34;10.45;;;9.02;;
17369;SDS011;8802;52.402;4.920;2023-04-06T02:23:01;9.82;;;8.82;;
17369;SDS011;8802;52.402;4.920;2023-04-06T02:25:28;9.95;;;8.95;;
17369;SDS011;8802;52.402;4.920;2023-04-06T02:27:55;9.65;;;7.93;;
17369;SDS011;8802;52.402;4.920;2023-04-06T02:30:22;9.20;;;8.15;;
17369;SDS011;8802;52.402;4.920;2023-04-06T02:32:50;8.63;;;7.72;;
17369;SDS011;8802;52.402;4.920;2023-04-06T02:35:17;10.93;;;8.73;;
17369;SDS011;8802;52.402;4.920;2023-04-06T02:37:44;10.85;;;9.15;;
17369;SDS011;8802;52.402;4.920;2023-04-06T02:40:11;9.73;;;8.70;;
17369;SDS011;8802;52.402;4.920;2023-04-06T02:42:38;9.32;;;8.43;;
17369;SDS011;8802;52.402;4.920;2023-04-06T02:45:05;10.73;;;8.32;;
17369;SDS011;8802;52.402;4.920;2023-04-06T02:47:33;9.05;;;8.15;;
17369;SDS011;8802;52.402;4.920;2023-04-06T02:50:01;10.18;;;9.07;;
17369;SDS011;8802;52.402;4.920;2023-04-06T02:52:28;12.10;;;9.15;;
17369;SDS011;8802;52.402;4.920;2023-04-06T02:54:55;10.65;;;9.40;;
17369;SDS011;8802;52.402;4.920;2023-04-06T02:57:22;9.13;;;8.23;;
17369;SDS011;8802;52.402;4.920;2023-04-06T02:59:49;9.35;;;8.38;;
17369;SDS011;8802;52.402;4.920;2023-04-06T03:02:16;9.35;;;8.43;;
17369;SDS011;8802;52.402;4.920;2023-04-06T03:04:43;10.32;;;8.75;;
17369;SDS011;8802;52.402;4.920;2023-04-06T03:07:12;9.57;;;8.60;;
17369;SDS011;8802;52.402;4.920;2023-04-06T03:09:39;9.40;;;8.50;;
17369;SDS011;8802;52.402;4.920;2023-04-06T03:12:06;9.32;;;8.38;;
17369;SDS011;8802;52.402;4.920;2023-04-06T03:14:33;10.98;;;9.60;;
17369;SDS011;8802;52.402;4.920;2023-04-06T03:17:00;10.23;;;8.85;;
17369;SDS011;8802;52.402;4.920;2023-04-06T03:19:27;10.45;;;9.45;;
17369;SDS011;8802;52.402;4.920;2023-04-06T03:21:54;9.73;;;8.68;;
17369;SDS011;8802;52.402;4.920;2023-04-06T03:24:22;9.18;;;8.25;;
17369;SDS011;8802;52.402;4.920;2023-04-06T03:26:49;9.18;;;8.27;;
17369;SDS011;8802;52.402;4.920;2023-04-06T03:29:16;9.43;;;8.38;;
17369;SDS011;8802;52.402;4.920;2023-04-06T03:31:43;9.93;;;8.45;;
17369;SDS011;8802;52.402;4.920;2023-04-06T03:34:10;9.50;;;8.60;;
17369;SDS011;8802;52.402;4.920;2023-04-06T03:36:37;9.75;;;8.05;;
17369;SDS011;8802;52.402;4.920;2023-04-06T03:39:04;9.30;;;8.40;;
17369;SDS011;8802;52.402;4.920;2023-04-06T03:41:32;11.25;;;8.85;;
17369;SDS011;8802;52.402;4.920;2023-04-06T03:43:59;8.82;;;8.02;;
17369;SDS011;8802;52.402;4.920;2023-04-06T03:46:26;10.35;;;9.18;;
17369;SDS011;8802;52.402;4.920;2023-04-06T03:48:53;10.07;;;8.50;;
17369;SDS011;8802;52.402;4.920;2023-04-06T03:51:20;10.35;;;9.40;;
17369;SDS011;8802;52.402;4.920;2023-04-06T03:53:46;10.45;;;9.45;;
17369;SDS011;8802;52.402;4.920;2023-04-06T03:56:13;11.38;;;9.20;;
17369;SDS011;8802;52.402;4.920;2023-04-06T03:58:42;11.50;;;10.02;;
17369;SDS011;8802;52.402;4.920;2023-04-06T04:01:10;11.27;;;10.07;;
17369;SDS011;8802;52.402;4.920;2023-04-06T04:03:37;10.30;;;8.70;;
17369;SDS011;8802;52.402;4.920;2023-04-06T04:06:04;11.43;;;9.80;;
17369;SDS011;8802;52.402;4.920;2023-04-06T04:08:31;10.77;;;9.68;;
17369;SDS011;8802;52.402;4.920;2023-04-06T04:10:58;10.90;;;9.25;;
17369;SDS011;8802;52.402;4.920;2023-04-06T04:13:25;9.93;;;8.93;;
17369;SDS011;8802;52.402;4.920;2023-04-06T04:15:53;9.88;;;8.88;;
17369;SDS011;8802;52.402;4.920;2023-04-06T04:18:20;9.98;;;8.98;;
17369;SDS011;8802;52.402;4.920;2023-04-06T04:20:47;10.52;;;9.45;;
17369;SDS011;8802;52.402;4.920;2023-04-06T04:23:14;10.30;;;8.50;;
17369;SDS011;8802;52.402;4.920;2023-04-06T04:25:41;11.02;;;9.13;;
17369;SDS011;8802;52.402;4.920;2023-04-06T04:28:09;10.45;;;9.32;;
17369;SDS011;8802;52.402;4.920;2023-04-06T04:30:36;11.00;;;9.88;;
17369;SDS011;8802;52.402;4.920;2023-04-06T04:33:04;12.05;;;10.43;;
17369;SDS011;8802;52.402;4.920;2023-04-06T04:35:31;11.68;;;10.50;;
17369;SDS011;8802;52.402;4.920;2023-04-06T04:37:58;12.65;;;9.77;;
17369;SDS011;8802;52.402;4.920;2023-04-06T04:40:25;13.13;;;10.38;;
17369;SDS011;8802;52.402;4.920;2023-04-06T04:42:52;13.93;;;10.50;;
17369;SDS011;8802;52.402;4.920;2023-04-06T04:45:19;12.10;;;10.68;;
17369;SDS011;8802;52.402;4.920;2023-04-06T04:47:46;14.00;;;10.30;;
17369;SDS011;8802;52.402;4.920;2023-04-06T04:50:14;12.20;;;10.20;;
17369;SDS011;8802;52.402;4.920;2023-04-06T04:52:41;13.35;;;11.30;;
17369;SDS011;8802;52.402;4.920;2023-04-06T04:55:08;13.10;;;10.45;;
17369;SDS011;8802;52.402;4.920;2023-04-06T04:57:35;12.27;;;10.52;;
17369;SDS011;8802;52.402;4.920;2023-04-06T05:00:02;14.40;;;12.43;;
17369;SDS011;8802;52.402;4.920;2023-04-06T05:02:29;13.10;;;11.20;;
17369;SDS011;8802;52.402;4.920;2023-04-06T05:04:56;13.40;;;11.95;;
17369;SDS011;8802;52.402;4.920;2023-04-06T05:07:24;13.35;;;11.73;;
17369;SDS011;8802;52.402;4.920;2023-04-06T05:09:51;15.13;;;11.70;;
17369;SDS011;8802;52.402;4.920;2023-04-06T05:12:18;15.35;;;12.35;;
17369;SDS011;8802;52.402;4.920;2023-04-06T05:14:45;13.13;;;11.73;;
17369;SDS011;8802;52.402;4.920;2023-04-06T05:17:12;13.00;;;10.85;;
17369;SDS011;8802;52.402;4.920;2023-04-06T05:19:39;13.27;;;11.85;;
17369;SDS011;8802;52.402;4.920;2023-04-06T05:22:06;13.07;;;11.43;;
17369;SDS011;8802;52.402;4.920;2023-04-06T05:24:35;12.30;;;11.00;;
17369;SDS011;8802;52.402;4.920;2023-04-06T05:27:02;14.30;;;11.95;;
17369;SDS011;8802;52.402;4.920;2023-04-06T05:29:29;14.02;;;11.68;;
17369;SDS011;8802;52.402;4.920;2023-04-06T05:31:56;14.27;;;11.90;;
17369;SDS011;8802;52.402;4.920;2023-04-06T05:34:23;15.18;;;12.50;;
17369;SDS011;8802;52.402;4.920;2023-04-06T05:36:50;13.32;;;11.93;;
17369;SDS011;8802;52.402;4.920;2023-04-06T05:39:17;12.63;;;11.32;;
17369;SDS011;8802;52.402;4.920;2023-04-06T05:41:46;12.65;;;11.35;;
17369;SDS011;8802;52.402;4.920;2023-04-06T05:44:12;17.00;;;12.23;;
17369;SDS011;8802;52.402;4.920;2023-04-06T05:46:39;15.43;;;10.35;;
17369;SDS011;8802;52.402;4.920;2023-04-06T05:49:06;15.60;;;12.10;;
17369;SDS011;8802;52.402;4.920;2023-04-06T05:51:33;14.27;;;12.75;;
17369;SDS011;8802;52.402;4.920;2023-04-06T05:54:00;13.95;;;12.52;;
17369;SDS011;8802;52.402;4.920;2023-04-06T05:56:27;15.75;;;12.80;;
17369;SDS011;8802;52.402;4.920;2023-04-06T05:58:56;12.73;;;11.38;;
17369;SDS011;8802;52.402;4.920;2023-04-06T06:01:23;12.95;;;11.20;;
17369;SDS011;8802;52.402;4.920;2023-04-06T06:03:50;14.43;;;12.70;;
17369;SDS011;8802;52.402;4.920;2023-04-06T06:06:17;14.43;;;12.60;;
17369;SDS011;8802;52.402;4.920;2023-04-06T06:08:44;15.18;;;13.23;;
17369;SDS011;8802;52.402;4.920;2023-04-06T06:11:11;15.55;;;12.98;;
17369;SDS011;8802;52.402;4.920;2023-04-06T06:13:38;19.10;;;14.00;;
17369;SDS011;8802;52.402;4.920;2023-04-06T06:16:06;17.42;;;13.85;;
17369;SDS011;8802;52.402;4.920;2023-04-06T06:18:33;15.13;;;13.52;;
17369;SDS011;8802;52.402;4.920;2023-04-06T06:21:01;18.00;;;14.90;;
17369;SDS011;8802;52.402;4.920;2023-04-06T06:23:29;16.90;;;13.45;;
17369;SDS011;8802;52.402;4.920;2023-04-06T06:25:56;18.75;;;15.20;;
17369;SDS011;8802;52.402;4.920;2023-04-06T06:28:23;17.10;;;15.30;;
17369;SDS011;8802;52.402;4.920;2023-04-06T06:30:51;20.58;;;16.02;;
17369;SDS011;8802;52.402;4.920;2023-04-06T06:33:19;21.90;;;17.05;;
17369;SDS011;8802;52.402;4.920;2023-04-06T06:35:46;16.60;;;14.80;;
17369;SDS011;8802;52.402;4.920;2023-04-06T06:38:13;16.35;;;13.65;;
17369;SDS011;8802;52.402;4.920;2023-04-06T06:40:40;18.55;;;15.30;;
17369;SDS011;8802;52.402;4.920;2023-04-06T06:43:07;20.05;;;16.42;;
17369;SDS011;8802;52.402;4.920;2023-04-06T06:45:34;17.95;;;15.93;;
17369;SDS011;8802;52.402;4.920;2023-04-06T06:48:01;18.63;;;15.55;;
17369;SDS011;8802;52.402;4.920;2023-04-06T06:50:30;21.23;;;17.23;;
17369;SDS011;8802;52.402;4.920;2023-04-06T06:52:57;22.80;;;17.23;;
17369;SDS011;8802;52.402;4.920;2023-04-06T06:55:24;18.38;;;15.40;;
17369;SDS011;8802;52.402;4.920;2023-04-06T06:57:51;18.35;;;16.08;;
17369;SDS011;8802;52.402;4.920;2023-04-06T07:00:19;19.92;;;16.23;;
17369;SDS011;8802;52.402;4.920;2023-04-06T07:02:46;21.08;;;16.83;;
17369;SDS011;8802;52.402;4.920;2023-04-06T07:05:14;23.45;;;18.48;;
17369;SDS011;8802;52.402;4.920;2023-04-06T07:07:42;21.65;;;17.77;;
17369;SDS011;8802;52.402;4.920;2023-04-06T07:10:09;19.90;;;17.60;;
17369;SDS011;8802;52.402;4.920;2023-04-06T07:12:36;21.50;;;16.70;;
17369;SDS011;8802;52.402;4.920;2023-04-06T07:15:04;21.42;;;17.98;;
17369;SDS011;8802;52.402;4.920;2023-04-06T07:17:31;21.33;;;18.38;;
17369;SDS011;8802;52.402;4.920;2023-04-06T07:19:58;20.10;;;16.95;;
17369;SDS011;8802;52.402;4.920;2023-04-06T07:22:26;20.67;;;17.23;;
17369;SDS011;8802;52.402;4.920;2023-04-06T07:24:54;20.35;;;16.75;;
17369;SDS011;8802;52.402;4.920;2023-04-06T07:27:21;19.98;;;17.67;;
17369;SDS011;8802;52.402;4.920;2023-04-06T07:29:48;22.88;;;18.50;;
17369;SDS011;8802;52.402;4.920;2023-04-06T07:32:15;20.80;;;17.85;;
17369;SDS011;8802;52.402;4.920;2023-04-06T07:34:42;21.85;;;18.77;;
17369;SDS011;8802;52.402;4.920;2023-04-06T07:37:10;20.95;;;18.00;;
17369;SDS011;8802;52.402;4.920;2023-04-06T07:39:37;26.00;;;19.92;;
17369;SDS011;8802;52.402;4.920;2023-04-06T07:42:05;21.17;;;18.67;;
17369;SDS011;8802;52.402;4.920;2023-04-06T07:44:32;21.45;;;17.98;;
17369;SDS011;8802;52.402;4.920;2023-04-06T07:46:59;20.75;;;16.88;;
17369;SDS011;8802;52.402;4.920;2023-04-06T07:49:26;21.63;;;18.70;;
17369;SDS011;8802;52.402;4.920;2023-04-06T07:51:53;23.92;;;19.98;;
17369;SDS011;8802;52.402;4.920;2023-04-06T07:54:20;21.65;;;17.65;;
17369;SDS011;8802;52.402;4.920;2023-04-06T07:56:47;22.33;;;18.45;;
17369;SDS011;8802;52.402;4.920;2023-04-06T07:59:15;21.67;;;19.27;;
17369;SDS011;8802;52.402;4.920;2023-04-06T08:01:42;20.85;;;18.67;;
17369;SDS011;8802;52.402;4.920;2023-04-06T08:04:09;22.20;;;19.13;;
17369;SDS011;8802;52.402;4.920;2023-04-06T08:06:36;23.25;;;20.20;;
17369;SDS011;8802;52.402;4.920;2023-04-06T08:09:03;23.35;;;20.95;;
17369;SDS011;8802;52.402;4.920;2023-04-06T08:11:30;22.98;;;20.02;;
17369;SDS011;8802;52.402;4.920;2023-04-06T08:13:57;21.90;;;18.70;;
17369;SDS011;8802;52.402;4.920;2023-04-06T08:16:26;21.60;;;19.05;;
17369;SDS011;8802;52.402;4.920;2023-04-06T08:18:53;21.27;;;19.10;;
17369;SDS011;8802;52.402;4.920;2023-04-06T08:21:19;25.10;;;20.30;;
17369;SDS011;8802;52.402;4.920;2023-04-06T08:23:46;23.83;;;19.67;;
17369;SDS011;8802;52.402;4.920;2023-04-06T08:26:13;22.15;;;19.75;;
17369;SDS011;8802;52.402;4.920;2023-04-06T08:28:40;19.63;;;17.48;;
17369;SDS011;8802;52.402;4.920;2023-04-06T08:31:07;20.17;;;17.65;;
17369;SDS011;8802;52.402;4.920;2023-04-06T08:33:35;20.50;;;18.02;;
17369;SDS011;8802;52.402;4.920;2023-04-06T08:36:07;26.20;;;19.13;;
17369;SDS011;8802;52.402;4.920;2023-04-06T08:38:35;23.55;;;18.95;;
17369;SDS011;8802;52.402;4.920;2023-04-06T08:41:06;25.30;;;20.45;;
17369;SDS011;8802;52.402;4.920;2023-04-06T08:43:35;20.48;;;18.27;;
17369;SDS011;8802;52.402;4.920;2023-04-06T08:46:07;18.70;;;16.83;;
17369;SDS011;8802;52.402;4.920;2023-04-06T08:48:36;21.58;;;18.23;;
17369;SDS011;8802;52.402;4.920;2023-04-06T08:51:05;22.48;;;17.98;;
17369;SDS011;8802;52.402;4.920;2023-04-06T08:53:32;19.85;;;17.75;;
17369;SDS011;8802;52.402;4.920;2023-04-06T08:55:59;21.05;;;17.73;;
17369;SDS011;8802;52.402;4.920;2023-04-06T08:58:28;20.15;;;18.02;;
17369;SDS011;8802;52.402;4.920;2023-04-06T09:00:58;19.55;;;17.52;;
17369;SDS011;8802;52.402;4.920;2023-04-06T09:03:27;20.27;;;18.13;;
17369;SDS011;8802;52.402;4.920;2023-04-06T09:05:57;19.40;;;17.42;;
17369;SDS011;8802;52.402;4.920;2023-04-06T09:08:25;21.23;;;17.23;;
17369;SDS011;8802;52.402;4.920;2023-04-06T09:10:52;23.75;;;17.50;;
17369;SDS011;8802;52.402;4.920;2023-04-06T09:13:19;19.20;;;16.30;;
17369;SDS011;8802;52.402;4.920;2023-04-06T09:15:46;18.98;;;17.00;;
17369;SDS011;8802;52.402;4.920;2023-04-06T09:18:27;18.65;;;16.85;;
17369;SDS011;8802;52.402;4.920;2023-04-06T09:21:00;18.25;;;16.40;;
17369;SDS011;8802;52.402;4.920;2023-04-06T09:23:29;19.55;;;17.50;;
17369;SDS011;8802;52.402;4.920;2023-04-06T09:26:08;19.30;;;17.30;;
17369;SDS011;8802;52.402;4.920;2023-04-06T09:28:43;20.67;;;18.55;;
17369;SDS011;8802;52.402;4.920;2023-04-06T09:31:11;22.77;;;18.83;;
17369;SDS011;8802;52.402;4.920;2023-04-06T09:33:40;19.52;;;17.52;;
17369;SDS011;8802;52.402;4.920;2023-04-06T09:36:09;22.48;;;20.17;;
17369;SDS011;8802;52.402;4.920;2023-04-06T09:38:37;19.98;;;17.55;;
17369;SDS011;8802;52.402;4.920;2023-04-06T09:41:04;21.65;;;19.45;;
17369;SDS011;8802;52.402;4.920;2023-04-06T09:43:31;21.40;;;19.20;;
17369;SDS011;8802;52.402;4.920;2023-04-06T09:45:59;21.58;;;19.38;;
17369;SDS011;8802;52.402;4.920;2023-04-06T09:48:28;21.08;;;18.67;;
17369;SDS011;8802;52.402;4.920;2023-04-06T09:51:01;22.15;;;19.15;;
17369;SDS011;8802;52.402;4.920;2023-04-06T09:53:32;21.92;;;19.63;;
17369;SDS011;8802;52.402;4.920;2023-04-06T09:56:03;20.55;;;18.45;;
17369;SDS011;8802;52.402;4.920;2023-04-06T09:58:37;23.42;;;19.67;;
17369;SDS011;8802;52.402;4.920;2023-04-06T10:01:09;20.95;;;18.75;;
17369;SDS011;8802;52.402;4.920;2023-04-06T10:03:40;21.70;;;19.40;;
17369;SDS011;8802;52.402;4.920;2023-04-06T10:06:14;22.13;;;18.85;;
17369;SDS011;8802;52.402;4.920;2023-04-06T10:08:45;23.30;;;19.88;;
17369;SDS011;8802;52.402;4.920;2023-04-06T10:11:16;19.50;;;17.40;;
17369;SDS011;8802;52.402;4.920;2023-04-06T10:13:43;19.88;;;17.88;;
17369;SDS011;8802;52.402;4.920;2023-04-06T10:16:12;19.40;;;17.45;;
17369;SDS011;8802;52.402;4.920;2023-04-06T10:18:41;21.83;;;19.30;;
17369;SDS011;8802;52.402;4.920;2023-04-06T10:21:14;21.83;;;18.73;;
17369;SDS011;8802;52.402;4.920;2023-04-06T10:23:47;22.75;;;19.05;;
17369;SDS011;8802;52.402;4.920;2023-04-06T10:26:17;20.60;;;18.33;;
17369;SDS011;8802;52.402;4.920;2023-04-06T10:28:47;22.35;;;17.45;;
17369;SDS011;8802;52.402;4.920;2023-04-06T10:31:15;18.77;;;16.80;;
17369;SDS011;8802;52.402;4.920;2023-04-06T10:33:53;22.60;;;17.08;;
17369;SDS011;8802;52.402;4.920;2023-04-06T10:36:21;18.85;;;15.63;;
17369;SDS011;8802;52.402;4.920;2023-04-06T10:38:55;20.77;;;15.90;;
17369;SDS011;8802;52.402;4.920;2023-04-06T10:41:23;14.98;;;13.07;;
17369;SDS011;8802;52.402;4.920;2023-04-06T10:43:57;18.50;;;14.77;;
17369;SDS011;8802;52.402;4.920;2023-04-06T10:46:26;16.90;;;13.90;;
17369;SDS011;8802;52.402;4.920;2023-04-06T10:48:54;18.30;;;15.23;;
17369;SDS011;8802;52.402;4.920;2023-04-06T10:51:24;16.77;;;14.85;;
17369;SDS011;8802;52.402;4.920;2023-04-06T10:53:52;15.05;;;13.45;;
17369;SDS011;8802;52.402;4.920;2023-04-06T10:56:21;15.55;;;13.77;;
17369;SDS011;8802;52.402;4.920;2023-04-06T10:58:51;14.30;;;12.82;;
17369;SDS011;8802;52.402;4.920;2023-04-06T11:01:21;17.48;;;14.15;;
17369;SDS011;8802;52.402;4.920;2023-04-06T11:03:50;14.77;;;13.18;;
17369;SDS011;8802;52.402;4.920;2023-04-06T11:06:19;15.82;;;13.63;;
17369;SDS011;8802;52.402;4.920;2023-04-06T11:08:46;15.50;;;13.25;;
17369;SDS011;8802;52.402;4.920;2023-04-06T11:11:15;13.25;;;11.93;;
17369;SDS011;8802;52.402;4.920;2023-04-06T11:13:44;14.43;;;12.85;;
17369;SDS011;8802;52.402;4.920;2023-04-06T11:16:14;15.93;;;13.40;;
17369;SDS011;8802;52.402;4.920;2023-04-06T11:18:48;13.57;;;12.27;;
17369;SDS011;8802;52.402;4.920;2023-04-06T11:21:16;13.98;;;12.63;;
17369;SDS011;8802;52.402;4.920;2023-04-06T11:23:43;13.75;;;12.35;;
17369;SDS011;8802;52.402;4.920;2023-04-06T11:26:11;14.23;;;12.73;;
17369;SDS011;8802;52.402;4.920;2023-04-06T11:28:40;12.00;;;10.80;;
17369;SDS011;8802;52.402;4.920;2023-04-06T11:31:08;13.55;;;11.15;;
17369;SDS011;8802;52.402;4.920;2023-04-06T11:33:36;11.50;;;10.40;;
17369;SDS011;8802;52.402;4.920;2023-04-06T11:36:03;10.98;;;9.88;;
17369;SDS011;8802;52.402;4.920;2023-04-06T11:38:31;10.95;;;9.85;;
17369;SDS011;8802;52.402;4.920;2023-04-06T11:40:58;8.75;;;7.95;;
17369;SDS011;8802;52.402;4.920;2023-04-06T11:43:27;10.32;;;9.32;;
17369;SDS011;8802;52.402;4.920;2023-04-06T11:46:00;9.45;;;8.55;;
17369;SDS011;8802;52.402;4.920;2023-04-06T11:48:28;8.45;;;7.65;;
17369;SDS011;8802;52.402;4.920;2023-04-06T11:50:56;9.15;;;8.18;;
17369;SDS011;8802;52.402;4.920;2023-04-06T11:53:25;8.90;;;8.00;;
17369;SDS011;8802;52.402;4.920;2023-04-06T11:55:53;9.35;;;8.55;;
17369;SDS011;8802;52.402;4.920;2023-04-06T11:58:20;9.77;;;8.77;;
17369;SDS011;8802;52.402;4.920;2023-04-06T12:00:47;11.63;;;8.40;;
17369;SDS011;8802;52.402;4.920;2023-04-06T12:03:15;8.40;;;7.50;;
17369;SDS011;8802;52.402;4.920;2023-04-06T12:05:43;8.52;;;7.65;;
17369;SDS011;8802;52.402;4.920;2023-04-06T12:08:10;8.15;;;7.13;;
17369;SDS011;8802;52.402;4.920;2023-04-06T12:10:37;8.25;;;7.32;;
17369;SDS011;8802;52.402;4.920;2023-04-06T12:13:04;7.93;;;7.13;;
17369;SDS011;8802;52.402;4.920;2023-04-06T12:15:32;8.50;;;7.70;;
17369;SDS011;8802;52.402;4.920;2023-04-06T12:17:59;7.50;;;6.65;;
17369;SDS011;8802;52.402;4.920;2023-04-06T12:20:27;7.35;;;6.63;;
17369;SDS011;8802;52.402;4.920;2023-04-06T12:22:54;7.03;;;6.32;;
17369;SDS011;8802;52.402;4.920;2023-04-06T12:25:21;8.35;;;7.55;;
17369;SDS011;8802;52.402;4.920;2023-04-06T12:27:48;7.75;;;7.05;;
17369;SDS011;8802;52.402;4.920;2023-04-06T12:30:15;7.68;;;7.03;;
17369;SDS011;8802;52.402;4.920;2023-04-06T12:32:42;7.68;;;6.97;;
17369;SDS011;8802;52.402;4.920;2023-04-06T12:35:10;8.68;;;7.82;;
17369;SDS011;8802;52.402;4.920;2023-04-06T12:37:42;7.47;;;6.78;;
17369;SDS011;8802;52.402;4.920;2023-04-06T12:40:09;7.63;;;6.93;;
17369;SDS011;8802;52.402;4.920;2023-04-06T12:42:38;8.20;;;7.40;;
17369;SDS011;8802;52.402;4.920;2023-04-06T12:45:06;8.57;;;7.45;;
17369;SDS011;8802;52.402;4.920;2023-04-06T12:47:33;7.57;;;6.88;;
17369;SDS011;8802;52.402;4.920;2023-04-06T12:50:02;7.75;;;6.95;;
17369;SDS011;8802;52.402;4.920;2023-04-06T12:52:30;7.78;;;7.10;;
17369;SDS011;8802;52.402;4.920;2023-04-06T12:55:01;8.63;;;7.38;;
17369;SDS011;8802;52.402;4.920;2023-04-06T12:57:30;7.88;;;7.07;;
17369;SDS011;8802;52.402;4.920;2023-04-06T12:59:57;8.40;;;7.65;;
17369;SDS011;8802;52.402;4.920;2023-04-06T13:02:24;10.05;;;7.63;;
17369;SDS011;8802;52.402;4.920;2023-04-06T13:04:51;7.50;;;6.80;;
17369;SDS011;8802;52.402;4.920;2023-04-06T13:07:18;8.95;;;8.15;;
17369;SDS011;8802;52.402;4.920;2023-04-06T13:09:46;7.78;;;7.07;;
17369;SDS011;8802;52.402;4.920;2023-04-06T13:12:15;7.80;;;7.07;;
17369;SDS011;8802;52.402;4.920;2023-04-06T13:14:43;8.77;;;7.97;;
17369;SDS011;8802;52.402;4.920;2023-04-06T13:17:12;8.20;;;7.50;;
17369;SDS011;8802;52.402;4.920;2023-04-06T13:19:39;8.90;;;7.85;;
17369;SDS011;8802;52.402;4.920;2023-04-06T13:22:09;8.80;;;8.00;;
17369;SDS011;8802;52.402;4.920;2023-04-06T13:24:36;11.18;;;8.70;;
17369;SDS011;8802;52.402;4.920;2023-04-06T13:27:03;8.38;;;7.55;;
17369;SDS011;8802;52.402;4.920;2023-04-06T13:29:31;9.00;;;8.15;;
17369;SDS011;8802;52.402;4.920;2023-04-06T13:31:59;9.60;;;8.65;;
17369;SDS011;8802;52.402;4.920;2023-04-06T13:34:26;9.73;;;8.82;;
17369;SDS011;8802;52.402;4.920;2023-04-06T13:36:53;9.73;;;8.82;;
17369;SDS011;8802;52.402;4.920;2023-04-06T13:39:20;9.60;;;8.57;;
17369;SDS011;8802;52.402;4.920;2023-04-06T13:41:47;10.05;;;8.73;;
17369;SDS011;8802;52.402;4.920;2023-04-06T13:44:14;9.63;;;8.75;;
17369;SDS011;8802;52.402;4.920;2023-04-06T13:46:42;10.82;;;9.73;;
17369;SDS011;8802;52.402;4.920;2023-04-06T13:49:09;10.15;;;9.18;;
17369;SDS011;8802;52.402;4.920;2023-04-06T13:51:36;10.25;;;9.25;;
17369;SDS011;8802;52.402;4.920;2023-04-06T13:54:03;9.98;;;8.98;;
17369;SDS011;8802;52.402;4.920;2023-04-06T13:56:30;9.88;;;8.88;;
17369;SDS011;8802;52.402;4.920;2023-04-06T13:58:57;11.43;;;9.93;;
17369;SDS011;8802;52.402;4.920;2023-04-06T14:01:24;11.77;;;10.57;;
17369;SDS011;8802;52.402;4.920;2023-04-06T14:03:53;11.10;;;10.00;;
17369;SDS011;8802;52.402;4.920;2023-04-06T14:06:19;11.60;;;10.48;;
17369;SDS011;8802;52.402;4.920;2023-04-06T14:08:46;11.57;;;10.45;;
17369;SDS011;8802;52.402;4.920;2023-04-06T14:11:14;13.18;;;11.15;;
17369;SDS011;8802;52.402;4.920;2023-04-06T14:13:41;11.00;;;9.95;;
17369;SDS011;8802;52.402;4.920;2023-04-06T14:16:08;11.88;;;10.77;;
17369;SDS011;8802;52.402;4.920;2023-04-06T14:18:36;10.82;;;9.75;;
17369;SDS011;8802;52.402;4.920;2023-04-06T14:21:04;10.70;;;9.70;;
17369;SDS011;8802;52.402;4.920;2023-04-06T14:23:31;11.88;;;10.70;;
17369;SDS011;8802;52.402;4.920;2023-04-06T14:26:02;11.07;;;9.98;;
17369;SDS011;8802;52.402;4.920;2023-04-06T14:28:30;11.70;;;10.60;;
17369;SDS011;8802;52.402;4.920;2023-04-06T14:30:58;11.45;;;10.38;;
17369;SDS011;8802;52.402;4.920;2023-04-06T14:33:25;10.25;;;9.35;;
17369;SDS011;8802;52.402;4.920;2023-04-06T14:35:52;10.48;;;9.27;;
17369;SDS011;8802;52.402;4.920;2023-04-06T14:38:21;10.88;;;9.75;;
17369;SDS011;8802;52.402;4.920;2023-04-06T14:40:47;10.93;;;9.82;;
17369;SDS011;8802;52.402;4.920;2023-04-06T14:43:15;10.60;;;9.60;;
17369;SDS011;8802;52.402;4.920;2023-04-06T14:45:42;11.35;;;10.35;;